Time;durP1;ratioP1;P1;durP2;ratioP2;P2;SDS_P1;SDS_P2;PMS_P1;PMS_P2;Temp;Humidity;BMP_temperature;BMP_pressure;BME280_temperature;BME280_humidity;BME280_pressure;Samples;Min_cycle;Max_cycle;Signal;HPM_P1;HPM_P2
2023/01/29 00:02:18;;;;;;;16.60;10.93;;;11.70;50.70;;;;;;4993010;28;20469;-80
2023/01/29 00:04:48;;;;;;;18.43;10.73;;;11.70;50.60;;;;;;4994949;28;20473;-80
2023/01/29 00:07:16;;;;;;;18.47;10.63;;;11.70;50.60;;;;;;4993745;28;20457;-80
2023/01/29 00:09:44;;;;;;;17.67;10.77;;;11.70;51.10;;;;;;4992957;28;20452;-77
2023/01/29 00:12:12;;;;;;;22.40;10.47;;;11.70;50.60;;;;;;4997892;28;20477;-81
2023/01/29 00:14:40;;;;;;;13.30;9.50;;;11.70;50.60;;;;;;4995975;28;20452;-80
2023/01/29 00:17:09;;;;;;;18.40;10.23;;;11.80;51.10;;;;;;4991582;28;20460;-80
2023/01/29 00:19:37;;;;;;;18.10;11.10;;;11.70;50.70;;;;;;4986219;28;20457;-81
2023/01/29 00:22:06;;;;;;;16.63;10.73;;;11.80;50.60;;;;;;4992165;28;20453;-81
2023/01/29 00:24:34;;;;;;;17.17;10.83;;;11.80;50.80;;;;;;4999922;28;21293;-81
2023/01/29 00:27:02;;;;;;;17.73;11.20;;;11.80;50.60;;;;;;4998042;28;20576;-80
2023/01/29 00:29:31;;;;;;;15.93;9.57;;;11.90;50.80;;;;;;4996751;28;20465;-79
2023/01/29 00:31:59;;;;;;;20.13;11.37;;;11.90;50.50;;;;;;4999585;28;20467;-80
2023/01/29 00:34:27;;;;;;;15.60;10.57;;;11.90;50.20;;;;;;4991773;28;20453;-81
2023/01/29 00:37:07;;;;;;;18.27;10.50;;;11.90;50.30;;;;;;4993567;28;20941;-81
2023/01/29 00:39:38;;;;;;;16.57;10.40;;;11.90;49.90;;;;;;4988368;28;20527;-80
2023/01/29 00:45:15;;;;;;;18.63;10.60;;;11.90;51.00;;;;;;4971433;28;20470;-82
2023/01/29 00:47:43;;;;;;;21.23;10.70;;;11.90;50.20;;;;;;4973702;28;20473;-79
2023/01/29 00:50:11;;;;;;;17.97;10.60;;;11.90;49.60;;;;;;4984089;28;20480;-79
2023/01/29 00:52:40;;;;;;;16.83;11.30;;;11.80;50.20;;;;;;4996697;28;20579;-79
2023/01/29 00:55:10;;;;;;;16.93;10.63;;;11.90;49.80;;;;;;4994957;28;20476;-78
2023/01/29 00:57:38;;;;;;;16.90;11.17;;;11.80;49.80;;;;;;4991881;28;20572;-78
2023/01/29 01:00:08;;;;;;;22.07;11.37;;;11.90;49.80;;;;;;4986091;28;20470;-80
2023/01/29 01:05:37;;;;;;;18.07;10.60;;;11.70;49.60;;;;;;4935776;29;20475;-81
2023/01/29 01:10:19;;;;;;;18.20;11.60;;;11.70;50.00;;;;;;4934895;29;20460;-79
2023/01/29 01:11:02;;;;;;;16.40;11.53;;;11.70;49.70;;;;;;4970763;28;20480;-79
2023/01/29 01:13:31;;;;;;;20.87;11.63;;;11.60;49.60;;;;;;4992219;28;20453;-80
2023/01/29 01:15:59;;;;;;;17.20;11.40;;;11.60;49.80;;;;;;4996190;28;20445;-78
2023/01/29 01:18:29;;;;;;;17.30;11.17;;;11.50;49.90;;;;;;4996393;28;20445;-79
2023/01/29 01:20:58;;;;;;;18.13;10.47;;;11.60;49.90;;;;;;4995534;28;20461;-80
2023/01/29 01:23:26;;;;;;;20.70;11.80;;;11.70;49.90;;;;;;4994488;28;20449;-79
2023/01/29 01:25:54;;;;;;;19.17;11.67;;;11.60;49.50;;;;;;4992343;28;20536;-79
2023/01/29 01:28:24;;;;;;;19.23;12.33;;;11.60;49.70;;;;;;4995474;28;20467;-78
2023/01/29 01:30:52;;;;;;;17.60;11.50;;;11.50;49.70;;;;;;4992970;28;20477;-80
2023/01/29 01:33:20;;;;;;;18.40;11.67;;;11.60;49.90;;;;;;4994255;28;20464;-79
2023/01/29 01:35:48;;;;;;;17.63;11.37;;;11.60;49.80;;;;;;4991830;28;20446;-79
2023/01/29 01:38:15;;;;;;;21.60;12.57;;;11.60;49.60;;;;;;4996160;28;20449;-80
2023/01/29 01:40:44;;;;;;;18.60;11.87;;;11.70;49.70;;;;;;4995102;28;20495;-79
2023/01/29 01:43:12;;;;;;;19.83;11.70;;;11.60;49.40;;;;;;4995543;28;20449;-79
2023/01/29 01:45:45;;;;;;;17.67;11.73;;;11.60;49.70;;;;;;4995055;28;20477;-79
2023/01/29 01:48:15;;;;;;;20.67;12.60;;;11.50;49.60;;;;;;4998525;28;20453;-79
2023/01/29 01:50:44;;;;;;;18.63;11.97;;;11.50;49.40;;;;;;4996151;28;20488;-79
2023/01/29 01:53:14;;;;;;;20.10;12.60;;;11.50;49.80;;;;;;4993809;28;20468;-79
2023/01/29 01:55:44;;;;;;;19.03;11.67;;;11.60;49.40;;;;;;4994342;28;20454;-78
2023/01/29 01:58:14;;;;;;;21.50;11.60;;;11.60;49.60;;;;;;4994496;28;20433;-78
2023/01/29 02:00:43;;;;;;;21.40;12.40;;;11.60;49.60;;;;;;4994350;28;20468;-79
2023/01/29 02:11:30;;;;;;;21.50;12.50;;;11.40;49.60;;;;;;4992437;28;20485;-78
2023/01/29 02:13:58;;;;;;;18.37;11.53;;;11.40;49.50;;;;;;4990655;28;20456;-79
2023/01/29 02:16:27;;;;;;;19.27;12.10;;;11.40;49.90;;;;;;4990477;28;20465;-79
2023/01/29 02:18:56;;;;;;;21.67;12.40;;;11.40;50.20;;;;;;4994296;28;20488;-78
2023/01/29 02:21:40;;;;;;;18.80;11.97;;;11.50;49.70;;;;;;4990568;28;20484;-79
2023/01/29 02:24:32;;;;;;;19.83;12.37;;;11.50;49.30;;;;;;4984960;28;20453;-80
2023/01/29 02:27:09;;;;;;;20.43;12.50;;;11.50;49.30;;;;;;4990801;28;20576;-79
2023/01/29 02:29:44;;;;;;;24.73;12.63;;;11.50;49.60;;;;;;4990178;28;20459;-79
2023/01/29 02:32:16;;;;;;;18.80;12.30;;;11.50;49.10;;;;;;4992049;28;20453;-79
2023/01/29 02:37:38;;;;;;;19.97;13.07;;;11.40;49.50;;;;;;4985400;28;20500;-79
2023/01/29 02:40:12;;;;;;;21.17;12.73;;;11.30;49.50;;;;;;4983927;28;20480;-79
2023/01/29 02:42:44;;;;;;;24.07;13.67;;;11.30;49.60;;;;;;4986052;28;20555;-79
2023/01/29 02:45:15;;;;;;;21.50;12.63;;;11.40;49.70;;;;;;4982070;28;20523;-79
2023/01/29 02:47:47;;;;;;;25.17;13.50;;;11.40;49.70;;;;;;4983868;28;20527;-78
2023/01/29 02:50:17;;;;;;;20.30;12.43;;;11.50;49.50;;;;;;4937879;28;1474207;-78
2023/01/29 02:52:50;;;;;;;19.77;12.73;;;11.40;49.70;;;;;;4991069;28;20231;-78
2023/01/29 02:55:21;;;;;;;21.80;13.13;;;11.40;49.50;;;;;;4988566;28;20476;-79
2023/01/29 02:57:49;;;;;;;22.40;13.10;;;11.30;49.70;;;;;;4991805;28;20457;-79
2023/01/29 03:00:19;;;;;;;19.77;12.37;;;11.40;49.70;;;;;;4992468;28;20480;-78
2023/01/29 03:02:48;;;;;;;22.73;12.90;;;11.30;49.60;;;;;;4991707;28;20472;-78
2023/01/29 03:05:18;;;;;;;26.17;14.50;;;11.30;49.80;;;;;;4993701;28;20477;-78
2023/01/29 03:07:48;;;;;;;22.73;14.00;;;11.30;49.90;;;;;;4994016;28;20457;-79
2023/01/29 03:10:18;;;;;;;24.67;14.07;;;11.40;49.90;;;;;;4993323;28;20488;-79
2023/01/29 03:12:48;;;;;;;22.40;14.13;;;11.40;49.90;;;;;;4991323;28;20475;-78
2023/01/29 03:15:19;;;;;;;22.50;13.87;;;11.40;49.80;;;;;;4987373;28;20453;-79
2023/01/29 03:17:49;;;;;;;21.80;14.10;;;11.40;49.40;;;;;;4991521;28;20453;-79
2023/01/29 03:20:19;;;;;;;22.83;14.97;;;11.40;49.70;;;;;;4987490;28;20484;-79
2023/01/29 03:22:51;;;;;;;22.60;13.13;;;11.40;49.80;;;;;;4991811;28;20457;-78
2023/01/29 03:33:42;;;;;;;33.57;14.93;;;11.40;50.00;;;;;;4991539;28;20589;-79
2023/01/29 03:36:11;;;;;;;22.47;14.50;;;11.40;50.20;;;;;;4991440;28;20472;-78
2023/01/29 03:38:40;;;;;;;24.90;15.00;;;11.50;51.00;;;;;;4991633;28;20449;-78
2023/01/29 03:41:10;;;;;;;23.90;14.50;;;11.50;50.10;;;;;;4985799;28;20469;-78
2023/01/29 03:43:41;;;;;;;21.83;13.90;;;11.60;50.30;;;;;;4989971;28;20449;-79
2023/01/29 03:46:17;;;;;;;23.03;14.50;;;11.50;50.00;;;;;;4991406;28;21008;-79
2023/01/29 03:48:49;;;;;;;23.47;15.47;;;11.60;50.30;;;;;;4989039;28;20461;-79
2023/01/29 03:51:20;;;;;;;29.83;15.90;;;11.50;50.40;;;;;;4989493;28;20481;-79
2023/01/29 03:53:50;;;;;;;24.10;15.03;;;11.50;50.40;;;;;;4989751;28;20472;-79
2023/01/29 03:56:26;;;;;;;23.67;14.67;;;11.50;50.60;;;;;;4991630;28;20518;-79
2023/01/29 03:58:56;;;;;;;23.77;16.00;;;11.50;50.50;;;;;;4992895;28;20445;-79
2023/01/29 04:01:27;;;;;;;23.20;15.17;;;11.50;50.50;;;;;;4991040;28;20473;-79
2023/01/29 04:03:56;;;;;;;29.30;16.13;;;11.50;50.80;;;;;;4994316;28;20449;-79
2023/01/29 04:06:24;;;;;;;27.13;16.10;;;11.50;50.50;;;;;;4989433;28;20473;-80
2023/01/29 04:08:55;;;;;;;27.87;16.80;;;11.50;50.90;;;;;;4992739;28;20456;-79
2023/01/29 04:11:23;;;;;;;26.93;16.43;;;11.40;50.90;;;;;;4991708;28;20477;-79
2023/01/29 04:13:51;;;;;;;29.13;16.50;;;11.40;50.90;;;;;;4993018;28;20445;-79
2023/01/29 04:16:22;;;;;;;29.03;16.83;;;11.40;50.80;;;;;;4989074;28;20449;-79
2023/01/29 04:18:51;;;;;;;25.50;16.10;;;11.50;51.60;;;;;;4993707;28;20460;-79
2023/01/29 04:21:19;;;;;;;28.10;16.20;;;11.50;51.20;;;;;;4990398;28;20480;-79
2023/01/29 04:23:47;;;;;;;26.20;15.80;;;11.60;51.40;;;;;;4994284;28;20449;-79
2023/01/29 04:26:24;;;;;;;24.60;16.60;;;11.60;50.90;;;;;;4993908;28;20488;-78
2023/01/29 04:28:58;;;;;;;24.97;15.53;;;11.60;50.90;;;;;;4989888;28;20477;-79
2023/01/29 04:31:28;;;;;;;24.20;15.77;;;11.60;50.80;;;;;;4994926;28;20472;-79
2023/01/29 04:34:01;;;;;;;26.57;16.60;;;11.60;51.00;;;;;;4992090;28;20449;-80
2023/01/29 04:36:33;;;;;;;27.63;17.17;;;11.60;50.90;;;;;;4993598;28;20445;-79
2023/01/29 04:39:06;;;;;;;27.80;16.87;;;11.60;50.80;;;;;;4994668;28;20453;-79
2023/01/29 04:41:36;;;;;;;29.30;16.93;;;11.60;51.10;;;;;;4995074;28;20487;-79
2023/01/29 04:44:06;;;;;;;27.53;16.90;;;11.50;51.10;;;;;;4994854;28;20452;-79
2023/01/29 04:46:35;;;;;;;27.13;17.37;;;11.50;50.90;;;;;;4993042;28;20481;-80
2023/01/29 04:49:13;;;;;;;28.33;17.50;;;11.50;51.00;;;;;;4994709;28;20483;-79
2023/01/29 04:51:45;;;;;;;27.53;16.80;;;11.50;51.10;;;;;;4994422;28;20480;-79
2023/01/29 04:54:16;;;;;;;25.20;16.30;;;11.50;51.00;;;;;;4993794;28;20452;-79
2023/01/29 04:56:48;;;;;;;25.23;16.43;;;11.40;51.00;;;;;;4992948;28;20473;-79
2023/01/29 04:59:19;;;;;;;27.57;17.33;;;11.40;51.20;;;;;;4990046;28;20822;-79
2023/01/29 05:01:47;;;;;;;28.70;17.20;;;11.40;51.00;;;;;;4997126;28;20480;-79
2023/01/29 05:04:18;;;;;;;29.63;17.60;;;11.40;51.30;;;;;;4993213;28;20449;-79
2023/01/29 05:06:46;;;;;;;29.07;17.50;;;11.40;51.10;;;;;;4992319;28;20473;-79
2023/01/29 05:09:14;;;;;;;30.63;18.33;;;11.50;51.30;;;;;;4992279;28;20461;-79
2023/01/29 05:11:42;;;;;;;26.00;17.43;;;11.50;51.30;;;;;;4991977;28;20479;-79
2023/01/29 05:14:11;;;;;;;25.70;16.93;;;11.60;51.10;;;;;;4991673;28;20545;-79
2023/01/29 05:16:42;;;;;;;30.53;17.47;;;11.50;51.00;;;;;;4992004;28;20458;-80
2023/01/29 05:19:10;;;;;;;32.63;19.17;;;11.50;51.80;;;;;;4992433;28;20464;-79
2023/01/29 05:21:44;;;;;;;33.47;18.07;;;11.50;51.10;;;;;;4992759;28;20474;-78
2023/01/29 05:24:13;;;;;;;27.50;17.20;;;11.50;51.60;;;;;;4993496;28;20460;-78
2023/01/29 05:29:26;;;;;;;29.80;18.40;;;11.50;51.60;;;;;;4990670;28;20455;-79
2023/01/29 05:31:54;;;;;;;30.23;17.70;;;11.50;51.70;;;;;;4993226;28;20544;-78
2023/01/29 05:34:22;;;;;;;29.80;18.93;;;11.50;51.90;;;;;;4994697;28;20512;-79
2023/01/29 05:36:52;;;;;;;30.47;18.17;;;11.50;52.10;;;;;;4994713;28;20445;-78
2023/01/29 05:39:20;;;;;;;29.73;18.27;;;11.50;52.70;;;;;;4993558;28;20464;-79
2023/01/29 05:41:48;;;;;;;28.30;17.80;;;11.50;52.50;;;;;;4992978;28;20481;-78
2023/01/29 05:44:16;;;;;;;29.53;18.60;;;11.50;53.10;;;;;;4989626;28;20461;-79
2023/01/29 05:46:44;;;;;;;28.73;17.90;;;11.60;53.20;;;;;;4991736;28;20473;-79
2023/01/29 05:49:12;;;;;;;30.80;18.87;;;11.50;53.10;;;;;;4993224;28;20469;-79
2023/01/29 05:51:41;;;;;;;29.43;18.40;;;11.60;52.90;;;;;;4993570;28;20508;-79
2023/01/29 05:54:11;;;;;;;32.07;19.07;;;11.50;53.20;;;;;;4993358;28;21408;-79
2023/01/29 05:56:39;;;;;;;31.83;18.23;;;11.50;53.50;;;;;;4990820;28;20473;-79
2023/01/29 05:59:07;;;;;;;30.93;18.93;;;11.50;53.20;;;;;;4993580;28;20535;-79
2023/01/29 06:01:35;;;;;;;29.50;18.90;;;11.50;53.80;;;;;;4994682;28;20489;-80
2023/01/29 06:04:03;;;;;;;33.40;19.57;;;11.40;53.90;;;;;;4993466;28;20473;-78
2023/01/29 06:06:31;;;;;;;31.27;18.50;;;11.50;53.80;;;;;;4991906;28;20482;-79
2023/01/29 06:08:59;;;;;;;32.33;18.27;;;11.40;54.10;;;;;;4990657;28;20461;-80
2023/01/29 06:11:29;;;;;;;30.27;19.60;;;11.30;54.10;;;;;;4991867;28;20473;-79
2023/01/29 06:13:57;;;;;;;28.57;18.60;;;11.40;54.30;;;;;;4992304;28;20484;-79
2023/01/29 06:16:25;;;;;;;28.87;19.00;;;11.40;54.80;;;;;;4989209;28;20448;-79
2023/01/29 06:18:54;;;;;;;28.93;19.27;;;11.40;54.20;;;;;;4992194;28;20575;-80
2023/01/29 06:21:21;;;;;;;35.30;20.43;;;11.50;54.70;;;;;;4991385;28;20477;-79
2023/01/29 06:23:51;;;;;;;30.97;19.10;;;11.50;54.40;;;;;;4991397;28;20484;-79
2023/01/29 06:26:19;;;;;;;33.50;19.33;;;11.40;54.60;;;;;;4991938;28;20480;-79
2023/01/29 06:28:49;;;;;;;35.30;19.40;;;11.40;54.80;;;;;;4992667;28;20464;-78
2023/01/29 06:31:18;;;;;;;33.70;19.93;;;11.40;54.80;;;;;;4988502;28;20488;-79
2023/01/29 06:34:04;;;;;;;36.47;20.20;;;11.40;54.90;;;;;;4992133;28;20457;-79
2023/01/29 06:36:32;;;;;;;31.50;18.60;;;11.40;54.70;;;;;;4992350;28;20454;-79
2023/01/29 06:39:00;;;;;;;32.10;19.80;;;11.40;54.70;;;;;;4989514;28;20457;-79
2023/01/29 06:41:28;;;;;;;33.17;19.67;;;11.40;54.80;;;;;;4992320;28;20477;-79
2023/01/29 06:43:57;;;;;;;34.53;18.63;;;11.40;54.90;;;;;;4991982;28;20457;-78
2023/01/29 06:46:25;;;;;;;31.07;18.57;;;11.50;55.40;;;;;;4993143;28;20454;-79
2023/01/29 06:48:53;;;;;;;32.40;19.50;;;11.50;55.10;;;;;;4988774;28;20466;-79
2023/01/29 06:51:22;;;;;;;32.47;19.60;;;11.50;55.10;;;;;;4992526;28;20473;-79
2023/01/29 06:53:49;;;;;;;30.57;18.50;;;11.50;55.00;;;;;;4991011;28;20512;-79
2023/01/29 06:56:17;;;;;;;33.47;19.70;;;11.60;54.90;;;;;;4990983;28;20477;-79
2023/01/29 06:58:45;;;;;;;31.93;19.03;;;11.50;54.90;;;;;;4991578;28;20803;-79
2023/01/29 07:01:15;;;;;;;34.87;19.33;;;11.50;55.10;;;;;;4991111;28;20477;-79
2023/01/29 07:04:01;;;;;;;35.17;20.00;;;11.40;55.00;;;;;;4991140;28;20459;-79
2023/01/29 07:06:30;;;;;;;27.50;18.67;;;11.50;55.50;;;;;;4991060;28;20460;-79
2023/01/29 07:08:57;;;;;;;30.97;19.90;;;11.50;55.40;;;;;;4989772;28;20457;-79
2023/01/29 07:11:26;;;;;;;31.60;19.53;;;11.40;55.10;;;;;;4990449;28;20473;-79
2023/01/29 07:13:54;;;;;;;30.77;19.80;;;11.50;55.20;;;;;;4992440;28;20457;-79
2023/01/29 07:16:23;;;;;;;31.83;19.70;;;11.50;54.90;;;;;;4991908;28;20476;-79
2023/01/29 07:18:52;;;;;;;33.60;20.43;;;11.40;55.00;;;;;;4991473;28;20453;-78
2023/01/29 07:21:20;;;;;;;31.50;20.10;;;11.40;55.10;;;;;;4990935;28;20488;-79
2023/01/29 07:23:48;;;;;;;29.70;18.50;;;11.50;55.50;;;;;;4991012;28;20465;-78
2023/01/29 07:26:16;;;;;;;33.60;20.53;;;11.50;55.00;;;;;;4988935;28;20487;-79
2023/01/29 07:28:44;;;;;;;36.00;20.37;;;11.40;55.30;;;;;;4989540;28;20480;-79
2023/01/29 07:31:12;;;;;;;33.73;19.93;;;11.50;55.30;;;;;;4990582;28;20472;-79
2023/01/29 07:33:42;;;;;;;31.77;19.30;;;11.50;54.80;;;;;;4991648;28;20540;-79
2023/01/29 07:36:10;;;;;;;35.03;20.03;;;11.40;54.90;;;;;;4990333;28;20449;-80
2023/01/29 07:38:38;;;;;;;33.70;19.23;;;11.40;55.30;;;;;;4991220;28;20450;-79
2023/01/29 07:41:05;;;;;;;34.20;20.97;;;11.50;54.90;;;;;;4993370;28;20457;-79
2023/01/29 07:43:33;;;;;;;31.67;19.57;;;11.50;55.00;;;;;;4991797;28;20441;-80
2023/01/29 07:46:02;;;;;;;33.60;20.60;;;11.50;55.20;;;;;;4990641;28;20454;-78
2023/01/29 07:48:29;;;;;;;34.77;20.47;;;11.50;55.70;;;;;;4991373;28;20477;-79
2023/01/29 07:50:59;;;;;;;31.17;20.20;;;11.50;55.00;;;;;;4991915;28;20479;-79
2023/01/29 07:53:27;;;;;;;33.10;20.60;;;11.50;54.80;;;;;;4990479;28;20461;-78
2023/01/29 07:55:55;;;;;;;39.30;20.77;;;11.40;54.80;;;;;;4989459;28;20477;-79
2023/01/29 07:58:23;;;;;;;31.67;19.83;;;11.50;55.50;;;;;;4990196;28;20449;-78
2023/01/29 08:00:51;;;;;;;30.27;19.07;;;11.60;54.90;;;;;;4989201;28;20473;-78
2023/01/29 08:03:19;;;;;;;38.30;21.43;;;11.60;55.10;;;;;;4990078;28;20457;-78
2023/01/29 08:05:48;;;;;;;31.60;19.60;;;11.60;54.30;;;;;;4990108;28;20461;-78
2023/01/29 08:08:18;;;;;;;35.60;21.87;;;11.50;54.40;;;;;;4990371;28;20472;-78
2023/01/29 08:10:46;;;;;;;38.17;21.70;;;11.50;54.70;;;;;;4989778;28;20489;-78
2023/01/29 08:13:14;;;;;;;36.60;21.97;;;11.50;54.50;;;;;;4989582;28;20464;-78
2023/01/29 08:15:42;;;;;;;36.77;21.87;;;11.60;54.40;;;;;;4990311;28;20457;-78
2023/01/29 08:18:11;;;;;;;34.53;21.60;;;11.60;54.40;;;;;;4990037;28;20468;-78
2023/01/29 08:20:39;;;;;;;38.67;21.80;;;11.70;54.10;;;;;;4990393;28;20484;-78
2023/01/29 08:23:08;;;;;;;37.57;22.50;;;11.70;54.00;;;;;;4989881;28;20465;-79
2023/01/29 08:25:37;;;;;;;32.30;20.20;;;11.80;54.40;;;;;;4988198;28;20464;-78
2023/01/29 08:28:06;;;;;;;37.63;21.70;;;11.80;54.20;;;;;;4988370;28;20473;-79
2023/01/29 08:30:34;;;;;;;37.40;21.37;;;11.80;53.80;;;;;;4986186;28;20472;-78
2023/01/29 08:33:03;;;;;;;34.23;21.97;;;11.70;53.40;;;;;;4989865;28;20475;-77
2023/01/29 08:35:31;;;;;;;36.97;21.30;;;11.70;53.30;;;;;;4989983;28;20544;-78
2023/01/29 08:38:00;;;;;;;34.53;20.97;;;11.80;53.70;;;;;;4990333;28;20459;-78
2023/01/29 08:40:30;;;;;;;36.77;20.30;;;11.80;53.90;;;;;;4988621;28;20473;-79
2023/01/29 08:42:59;;;;;;;33.67;20.50;;;11.80;53.30;;;;;;4990274;28;20480;-79
2023/01/29 08:45:30;;;;;;;34.73;20.10;;;11.70;53.30;;;;;;4992922;28;20479;-79
2023/01/29 08:47:58;;;;;;;32.50;21.70;;;11.80;53.80;;;;;;4993518;28;20481;-78
2023/01/29 08:50:25;;;;;;;35.90;20.90;;;11.80;52.90;;;;;;4994335;28;20500;-78
2023/01/29 08:52:56;;;;;;;32.97;20.57;;;11.70;52.70;;;;;;4991175;28;20453;-78
2023/01/29 08:55:24;;;;;;;33.13;19.17;;;11.80;53.10;;;;;;4993125;28;20484;-78
2023/01/29 08:57:52;;;;;;;38.57;20.53;;;11.80;52.80;;;;;;4990426;28;20450;-78
2023/01/29 09:00:22;;;;;;;33.67;20.10;;;11.80;52.80;;;;;;4990827;28;20477;-78
2023/01/29 09:02:50;;;;;;;28.00;18.73;;;11.80;52.50;;;;;;4992876;28;20483;-77
2023/01/29 09:05:18;;;;;;;36.20;20.13;;;11.90;52.50;;;;;;4993022;28;20457;-78
2023/01/29 09:07:46;;;;;;;32.50;19.57;;;11.90;52.50;;;;;;4992050;28;20459;-78
2023/01/29 09:10:14;;;;;;;31.13;19.87;;;11.80;52.40;;;;;;4992305;28;20473;-78
2023/01/29 09:12:42;;;;;;;35.73;21.47;;;11.80;52.30;;;;;;4993840;28;20510;-79
2023/01/29 09:15:11;;;;;;;30.20;20.00;;;11.80;52.50;;;;;;4992734;28;20460;-79
2023/01/29 09:17:41;;;;;;;31.90;20.30;;;11.90;52.10;;;;;;4993892;28;20458;-76
2023/01/29 09:20:10;;;;;;;29.77;19.87;;;11.90;52.30;;;;;;4993019;28;20488;-77
2023/01/29 09:22:38;;;;;;;32.30;19.63;;;12.00;52.40;;;;;;4990488;28;20464;-77
2023/01/29 09:25:07;;;;;;;34.10;20.27;;;11.90;52.30;;;;;;4992505;28;20449;-78
2023/01/29 09:27:35;;;;;;;32.77;19.60;;;11.90;51.90;;;;;;4991683;28;20469;-78
2023/01/29 09:30:04;;;;;;;30.67;18.00;;;11.80;51.90;;;;;;4992646;28;20477;-76
2023/01/29 09:32:33;;;;;;;30.20;19.53;;;11.80;52.10;;;;;;4992798;28;20848;-76
2023/01/29 09:35:22;;;;;;;32.90;20.10;;;11.90;52.40;;;;;;4992636;28;20459;-76
2023/01/29 09:37:50;;;;;;;31.70;19.83;;;11.90;52.00;;;;;;4992464;28;20453;-77
2023/01/29 09:40:24;;;;;;;31.70;19.30;;;12.00;52.20;;;;;;4987939;28;20477;-78
2023/01/29 09:42:55;;;;;;;30.97;19.87;;;12.00;51.30;;;;;;4993354;28;20457;-78
2023/01/29 09:45:24;;;;;;;32.50;20.00;;;12.00;51.70;;;;;;4992541;28;20456;-76
2023/01/29 09:47:52;;;;;;;32.17;19.83;;;11.90;51.20;;;;;;4991912;28;20464;-77
2023/01/29 09:50:23;;;;;;;34.97;21.60;;;11.90;52.00;;;;;;4992166;28;20484;-77
2023/01/29 09:52:52;;;;;;;32.37;19.53;;;11.90;51.40;;;;;;4993172;28;20461;-77
2023/01/29 09:55:22;;;;;;;33.67;20.63;;;12.00;51.80;;;;;;4991699;28;20480;-78
2023/01/29 09:57:52;;;;;;;30.37;19.57;;;12.00;51.60;;;;;;4992352;28;20468;-78
2023/01/29 10:00:23;;;;;;;32.07;19.27;;;12.00;51.60;;;;;;4992788;28;20484;-78
2023/01/29 10:03:20;;;;;;;27.53;17.30;;;12.10;51.50;;;;;;4994745;28;20453;-79
2023/01/29 10:05:56;;;;;;;32.67;18.30;;;12.20;53.30;;;;;;4993401;28;20453;-78
2023/01/29 10:08:55;;;;;;;28.63;18.03;;;12.30;53.30;;;;;;4993127;28;20456;-78
2023/01/29 10:11:29;;;;;;;31.90;18.60;;;12.20;52.40;;;;;;4940990;28;20469;-78
2023/01/29 10:14:03;;;;;;;32.40;18.97;;;12.20;52.10;;;;;;4990177;28;20453;-76
2023/01/29 10:16:41;;;;;;;30.80;18.07;;;12.20;52.10;;;;;;4986085;28;20464;-77
2023/01/29 10:19:16;;;;;;;30.27;19.07;;;12.20;52.10;;;;;;4981921;28;20473;-78
2023/01/29 10:22:04;;;;;;;30.77;19.57;;;12.10;52.00;;;;;;4991382;28;20460;-78
2023/01/29 10:24:36;;;;;;;28.50;19.43;;;12.10;52.00;;;;;;4989698;28;20439;-78
2023/01/29 10:27:12;;;;;;;34.50;19.50;;;12.10;51.90;;;;;;4990393;28;20472;-76
2023/01/29 10:29:40;;;;;;;32.57;19.77;;;12.10;52.00;;;;;;4984800;28;20477;-77
2023/01/29 10:32:08;;;;;;;29.80;19.37;;;12.20;52.00;;;;;;4985630;28;20461;-78
2023/01/29 10:34:38;;;;;;;29.93;20.10;;;12.20;51.70;;;;;;4988830;28;20438;-79
2023/01/29 10:37:12;;;;;;;31.10;20.70;;;12.20;51.40;;;;;;4989357;28;20438;-79
2023/01/29 10:39:40;;;;;;;30.43;19.87;;;12.30;51.50;;;;;;4990542;28;20436;-78
2023/01/29 10:42:22;;;;;;;27.53;18.70;;;12.20;51.40;;;;;;4992459;28;20473;-79
2023/01/29 10:45:02;;;;;;;35.97;19.47;;;12.30;51.30;;;;;;4992693;28;20433;-79
2023/01/29 10:47:43;;;;;;;29.97;19.97;;;12.20;51.00;;;;;;4991806;28;20454;-79
2023/01/29 10:50:18;;;;;;;32.93;19.67;;;12.30;51.20;;;;;;4989663;28;20578;-78
2023/01/29 10:52:57;;;;;;;34.10;20.17;;;12.50;51.00;;;;;;4991376;28;20445;-78
2023/01/29 10:55:32;;;;;;;29.30;18.93;;;12.40;50.90;;;;;;4993479;28;20520;-77
2023/01/29 10:58:04;;;;;;;31.80;19.40;;;12.30;50.80;;;;;;4986820;28;20456;-78
2023/01/29 11:00:35;;;;;;;29.10;19.37;;;12.30;51.40;;;;;;4993890;28;20465;-79
2023/01/29 11:03:12;;;;;;;28.70;18.47;;;12.30;51.20;;;;;;4991250;28;20532;-79
2023/01/29 11:05:57;;;;;;;28.80;18.70;;;12.40;50.90;;;;;;4983941;28;20449;-79
2023/01/29 11:08:28;;;;;;;30.23;19.27;;;12.40;51.00;;;;;;4991193;28;20445;-79
2023/01/29 11:11:01;;;;;;;28.50;18.67;;;12.40;50.80;;;;;;4985063;28;20473;-78
2023/01/29 11:13:31;;;;;;;32.00;19.37;;;12.60;51.30;;;;;;4993140;28;20452;-77
2023/01/29 11:15:59;;;;;;;31.53;20.00;;;12.40;50.50;;;;;;4982780;28;20438;-79
2023/01/29 11:18:27;;;;;;;27.80;17.83;;;12.40;50.90;;;;;;4991254;28;20441;-79
2023/01/29 11:21:00;;;;;;;29.60;19.43;;;12.30;51.00;;;;;;4982500;28;20492;-78
2023/01/29 11:23:30;;;;;;;29.70;19.20;;;12.40;51.50;;;;;;4980311;28;20441;-78
2023/01/29 11:25:59;;;;;;;30.80;19.17;;;12.30;51.20;;;;;;4991648;28;20474;-77
2023/01/29 11:28:37;;;;;;;30.40;19.57;;;12.30;51.40;;;;;;4991914;28;20456;-78
2023/01/29 11:31:16;;;;;;;35.03;21.33;;;12.20;51.50;;;;;;4985859;28;20483;-77
2023/01/29 11:33:44;;;;;;;33.37;21.40;;;12.30;51.60;;;;;;4981809;28;20450;-79
2023/01/29 11:36:25;;;;;;;38.50;22.60;;;12.30;51.80;;;;;;4987608;28;20443;-77
2023/01/29 11:39:13;;;;;;;34.33;21.10;;;12.30;51.90;;;;;;4985263;28;20461;-79
2023/01/29 11:41:47;;;;;;;34.57;20.90;;;12.30;52.00;;;;;;4991111;28;20468;-79
2023/01/29 11:44:22;;;;;;;32.13;19.73;;;12.40;52.00;;;;;;4985179;28;20433;-78
2023/01/29 11:46:49;;;;;;;30.17;19.97;;;12.50;51.70;;;;;;4993107;28;20432;-77
2023/01/29 11:49:28;;;;;;;32.80;19.57;;;12.50;51.70;;;;;;4986051;28;20450;-76
2023/01/29 11:51:57;;;;;;;30.83;19.87;;;12.40;51.80;;;;;;4984408;28;20445;-77
2023/01/29 11:54:28;;;;;;;33.80;20.60;;;12.50;51.60;;;;;;4988954;28;20464;-79
2023/01/29 11:56:56;;;;;;;34.20;21.03;;;12.50;51.60;;;;;;4989475;28;20475;-77
2023/01/29 11:59:29;;;;;;;31.87;20.43;;;12.40;51.40;;;;;;4990940;28;20445;-78
2023/01/29 12:02:04;;;;;;;30.60;19.67;;;12.40;51.70;;;;;;4988639;28;20448;-79
2023/01/29 12:04:31;;;;;;;36.10;20.53;;;12.40;51.80;;;;;;4988892;28;20445;-78
2023/01/29 12:06:59;;;;;;;33.00;19.23;;;12.50;51.40;;;;;;4983010;28;20465;-78
2023/01/29 12:09:29;;;;;;;32.30;20.43;;;12.50;51.90;;;;;;4987815;28;20454;-78
2023/01/29 12:11:57;;;;;;;33.00;20.53;;;12.50;51.60;;;;;;4983650;28;20461;-78
2023/01/29 12:14:32;;;;;;;34.60;21.20;;;12.40;51.50;;;;;;4988321;28;20456;-77
2023/01/29 12:17:01;;;;;;;32.27;21.07;;;12.30;51.50;;;;;;4980931;28;20472;-79
2023/01/29 12:19:33;;;;;;;34.47;20.87;;;12.40;51.60;;;;;;4993644;28;20437;-78
2023/01/29 12:22:04;;;;;;;34.90;20.40;;;12.40;51.40;;;;;;4995700;28;20449;-75
2023/01/29 12:24:35;;;;;;;40.30;21.03;;;12.30;51.40;;;;;;4993853;28;20445;-78
2023/01/29 12:27:07;;;;;;;38.70;21.97;;;12.20;51.80;;;;;;4986181;28;20475;-79
2023/01/29 12:29:40;;;;;;;33.27;20.60;;;12.40;51.50;;;;;;4992439;28;20490;-77
2023/01/29 12:32:12;;;;;;;34.60;20.90;;;12.50;51.50;;;;;;4990750;28;20445;-78
2023/01/29 12:34:45;;;;;;;32.50;21.13;;;12.40;51.30;;;;;;4995505;28;20472;-79
2023/01/29 12:37:17;;;;;;;31.43;20.50;;;12.30;51.40;;;;;;4998181;28;20536;-78
2023/01/29 12:39:48;;;;;;;37.43;22.00;;;12.30;51.70;;;;;;4989382;28;20457;-79
2023/01/29 12:42:17;;;;;;;33.63;21.17;;;12.30;51.40;;;;;;4993316;28;20472;-79
2023/01/29 12:44:47;;;;;;;33.40;20.87;;;12.40;51.60;;;;;;4993336;28;20450;-78
2023/01/29 12:47:19;;;;;;;38.07;21.43;;;12.30;51.40;;;;;;4991226;28;20486;-79
2023/01/29 12:49:50;;;;;;;33.80;21.67;;;12.30;51.60;;;;;;4990062;28;20450;-77
2023/01/29 12:52:20;;;;;;;34.10;19.83;;;12.30;51.20;;;;;;4995761;28;20437;-79
2023/01/29 12:54:53;;;;;;;33.67;21.23;;;12.40;51.80;;;;;;4996186;28;20438;-77
2023/01/29 12:57:23;;;;;;;36.20;22.07;;;12.30;51.30;;;;;;4996519;28;20469;-77
2023/01/29 12:59:53;;;;;;;35.53;21.57;;;12.30;51.50;;;;;;4991640;28;20461;-79
2023/01/29 13:02:30;;;;;;;36.40;20.73;;;12.40;51.50;;;;;;4995352;28;20449;-79
2023/01/29 13:05:00;;;;;;;37.50;21.07;;;12.40;52.30;;;;;;4992005;28;20503;-77
2023/01/29 13:07:31;;;;;;;43.43;21.97;;;12.40;51.80;;;;;;4988641;28;20446;-79
2023/01/29 13:10:04;;;;;;;37.60;21.60;;;12.60;51.70;;;;;;4988895;28;20468;-78
2023/01/29 13:12:32;;;;;;;41.70;23.50;;;12.40;51.50;;;;;;4990610;28;20553;-77
2023/01/29 13:15:02;;;;;;;42.50;23.40;;;12.40;52.10;;;;;;4989732;28;20456;-76